Time;durP1;ratioP1;P1;durP2;ratioP2;P2;SDS_P1;SDS_P2;PMS_P1;PMS_P2;Temp;Humidity;BMP_temperature;BMP_pressure;BME280_temperature;BME280_humidity;BME280_pressure;Samples;Min_cycle;Max_cycle;Signal;HPM_P1;HPM_P2
2022/08/07 06:40:30;;;;;;;2.42;1.17;;;;;;;19.57;49.94;97265.25;5713368;23;19934;-76
2022/08/07 06:43:05;;;;;;;1.75;1.20;;;;;;;19.63;48.90;97261.69;4879461;29;20768;-76
2022/08/07 06:45:51;;;;;;;1.88;1.00;;;;;;;19.69;48.26;97260.84;4879390;29;20048;-75
2022/08/07 06:48:18;;;;;;;1.88;0.77;;;;;;;19.75;48.09;97257.31;4879542;29;20056;-76
2022/08/07 06:50:53;;;;;;;0.77;0.77;;;;;;;19.84;47.71;97257.81;4879190;29;20049;-76
2022/08/07 06:53:22;;;;;;;4.43;0.90;;;;;;;19.92;46.11;97262.00;4879493;29;20469;-76
2022/08/07 06:56:13;;;;;;;1.25;0.60;;;;;;;19.99;45.85;97251.31;4879195;29;20053;-76
2022/08/07 06:58:43;;;;;;;;;;;;;;;20.10;46.22;97258.47;4879619;29;20060;-76
2022/08/07 07:01:33;;;;;;;0.55;0.50;;;;;;;20.18;44.57;97263.41;4879043;29;19934;-76
2022/08/07 07:04:16;;;;;;;1.17;0.47;;;;;;;20.25;44.82;97255.41;4879121;29;20564;-76
2022/08/07 07:07:01;;;;;;;0.82;0.82;;;;;;;20.34;43.49;97257.47;4878789;29;20135;-77
2022/08/07 07:09:47;;;;;;;0.35;0.35;;;;;;;20.42;43.32;97253.69;4877270;29;20101;-79
2022/08/07 07:12:27;;;;;;;0.50;0.50;;;;;;;20.50;42.43;97245.41;4875718;29;20134;-76
2022/08/07 07:15:03;;;;;;;0.47;0.40;;;;;;;20.58;41.90;97246.94;4877228;29;20055;-76
2022/08/07 07:17:42;;;;;;;0.65;0.40;;;;;;;20.64;41.16;97250.50;4891897;29;20068;-76
2022/08/07 07:20:21;;;;;;;0.40;0.40;;;;;;;20.67;40.93;97258.00;4892441;29;20108;-76
2022/08/07 07:22:49;;;;;;;;;;;;;;;20.73;42.33;97254.44;4875859;29;20087;-76
2022/08/07 07:25:39;;;;;;;1.30;0.52;;;;;;;20.81;40.97;97254.06;4894835;29;20397;-75
2022/08/07 07:28:34;;;;;;;0.73;0.60;;;;;;;20.89;40.97;97253.75;4884541;29;20057;-76
2022/08/07 07:31:29;;;;;;;0.77;0.40;;;;;;;20.96;40.95;97251.75;4880914;29;20049;-77
2022/08/07 07:34:16;;;;;;;1.00;0.50;;;;;;;21.03;39.95;97241.03;4877844;29;20053;-76
2022/08/07 07:36:49;;;;;;;0.98;0.60;;;;;;;21.11;40.00;97245.19;4877024;29;20061;-76
2022/08/07 07:39:22;;;;;;;1.45;0.35;;;;;;;21.12;39.39;97252.09;4860397;29;20060;-76
2022/08/07 07:41:53;;;;;;;2.10;0.50;;;;;;;21.17;39.34;97255.66;4876297;29;20057;-75
2022/08/07 07:44:45;;;;;;;3.05;0.43;;;;;;;21.22;39.26;97252.31;4872115;29;20296;-78
2022/08/07 07:47:16;;;;;;;0.50;0.50;;;;;;;21.29;39.77;97250.34;4861273;29;20041;-80
2022/08/07 07:50:06;;;;;;;0.75;0.50;;;;;;;21.36;38.60;97242.25;4867289;29;20085;-77
2022/08/07 07:52:54;;;;;;;2.40;0.50;;;;;;;21.41;38.39;97237.09;4862601;29;20058;-77
2022/08/07 07:55:25;;;;;;;0.80;0.57;;;;;;;21.40;38.05;97235.44;4879462;29;20060;-76
2022/08/07 07:58:05;;;;;;;1.88;0.77;;;;;;;21.43;38.10;97236.81;4879175;29;20057;-76
2022/08/07 08:00:35;;;;;;;0.63;0.50;;;;;;;21.50;38.17;97242.81;4863154;29;20080;-76
2022/08/07 08:03:08;;;;;;;0.40;0.40;;;;;;;21.57;38.10;97228.34;4868331;29;20053;-75
2022/08/07 08:05:44;;;;;;;0.60;0.43;;;;;;;21.67;38.12;97230.41;4871903;29;20053;-77
2022/08/07 08:08:23;;;;;;;1.15;0.68;;;;;;;21.79;37.91;97230.34;4878329;29;20116;-76
2022/08/07 08:11:05;;;;;;;1.95;0.60;;;;;;;21.87;37.08;97231.84;4861346;29;20057;-76
2022/08/07 08:13:37;;;;;;;0.77;0.47;;;;;;;21.93;37.98;97229.03;4871878;29;20057;-76
2022/08/07 08:16:30;;;;;;;1.65;0.38;;;;;;;22.02;36.81;97226.78;4878499;29;20464;-76
2022/08/07 08:19:03;;;;;;;0.95;0.40;;;;;;;22.11;36.84;97220.03;4862366;29;20398;-76
2022/08/07 08:27:52;;;;;;;0.63;0.30;;;;;;;22.35;36.26;97225.22;4876127;29;20519;-77
2022/08/07 08:30:27;;;;;;;1.33;0.50;;;;;;;22.45;36.90;97224.56;4877169;29;20057;-76
2022/08/07 08:32:59;;;;;;;2.25;0.52;;;;;;;22.53;36.17;97224.97;4878406;29;20052;-76
2022/08/07 08:35:31;;;;;;;0.90;0.55;;;;;;;22.58;35.49;97222.38;4878290;29;20084;-80
2022/08/07 08:38:14;;;;;;;0.50;0.30;;;;;;;22.65;35.06;97232.84;4866653;29;20496;-79
2022/08/07 08:40:50;;;;;;;1.83;0.35;;;;;;;22.68;34.65;97227.06;4884719;29;20083;-80
2022/08/07 08:43:23;;;;;;;0.88;0.38;;;;;;;22.71;34.20;97228.41;4882754;29;20053;-78
2022/08/07 08:46:14;;;;;;;0.88;0.38;;;;;;;22.74;34.46;97230.56;4867597;29;20136;-79
2022/08/07 08:48:53;;;;;;;0.30;0.30;;;;;;;22.77;33.92;97224.78;4881927;29;20053;-79
2022/08/07 08:51:27;;;;;;;0.40;0.35;;;;;;;22.81;34.16;97228.56;4884947;29;20160;-79
2022/08/07 08:54:22;;;;;;;1.08;0.68;;;;;;;22.84;34.58;97234.19;4877142;29;20137;-78
2022/08/07 08:56:53;;;;;;;1.50;0.40;;;;;;;22.89;34.70;97219.34;4878100;29;20416;-79
2022/08/07 08:59:28;;;;;;;1.50;0.70;;;;;;;22.93;33.71;97223.94;4874185;29;20045;-78
2022/08/07 09:02:03;;;;;;;0.50;0.40;;;;;;;22.96;34.06;97212.03;4862682;29;20084;-79
2022/08/07 09:04:44;;;;;;;0.50;0.28;;;;;;;23.01;33.87;97230.72;4870888;29;20030;-79
2022/08/07 09:07:19;;;;;;;0.35;0.35;;;;;;;23.03;33.79;97208.16;4879715;29;20140;-79
2022/08/07 09:10:06;;;;;;;1.40;0.40;;;;;;;23.08;33.83;97220.72;4873478;29;20053;-80
2022/08/07 09:12:45;;;;;;;0.47;0.22;;;;;;;23.12;32.72;97213.84;4875486;29;20053;-79
2022/08/07 09:15:36;;;;;;;0.50;0.30;;;;;;;23.15;32.70;97215.19;4865843;29;20096;-79
2022/08/07 09:18:52;;;;;;;1.58;0.50;;;;;;;23.19;32.77;97208.34;4867811;29;20117;-80
2022/08/07 09:21:55;;;;;;;0.30;0.30;;;;;;;23.22;32.36;97213.16;4880841;29;20064;-80
2022/08/07 09:25:15;;;;;;;0.45;0.40;;;;;;;23.19;32.59;97208.34;4883589;29;20058;-80
2022/08/07 09:28:05;;;;;;;0.65;0.40;;;;;;;23.21;32.07;97214.22;4885703;29;20080;-81
2022/08/07 09:34:20;;;;;;;1.75;0.40;;;;;;;23.35;32.17;97210.13;5426845;23;19952;-81
2022/08/07 09:37:26;;;;;;;1.40;0.35;;;;;;;23.38;32.94;97209.63;4936626;29;20063;-81
2022/08/07 09:40:32;;;;;;;1.80;0.40;;;;;;;23.47;32.79;97217.19;4934136;29;20059;-80
2022/08/07 09:43:12;;;;;;;0.17;0.17;;;;;;;23.51;32.71;97207.66;4928399;29;20063;-80
2022/08/07 09:45:58;;;;;;;0.60;0.30;;;;;;;23.55;32.66;97198.09;4920082;29;20052;-80
2022/08/07 09:48:54;;;;;;;0.43;0.40;;;;;;;23.60;32.75;97196.28;4907714;29;20051;-80
2022/08/07 09:51:55;;;;;;;0.82;0.20;;;;;;;23.68;33.03;97203.03;4911224;29;20060;-80
2022/08/07 09:54:46;;;;;;;1.75;0.50;;;;;;;23.70;32.98;97200.09;4910973;29;20135;-80
2022/08/07 09:57:55;;;;;;;0.53;0.40;;;;;;;23.75;33.14;97198.34;4921160;29;20107;-80
2022/08/07 10:00:29;;;;;;;0.40;0.30;;;;;;;23.80;32.97;97195.72;4918695;29;20060;-80
2022/08/07 10:03:33;;;;;;;0.30;0.30;;;;;;;23.84;32.13;97190.69;4925569;29;20036;-80
2022/08/07 10:06:49;;;;;;;1.90;0.50;;;;;;;23.85;32.47;97179.81;4926280;29;20549;-80
2022/08/07 10:09:50;;;;;;;1.95;0.55;;;;;;;23.90;32.21;97176.38;4922825;29;20053;-80
2022/08/07 10:12:47;;;;;;;0.45;0.40;;;;;;;23.95;32.02;97180.94;4902889;29;20048;-80
2022/08/07 10:15:45;;;;;;;0.45;0.40;;;;;;;23.99;31.97;97176.72;4921717;29;20056;-80
2022/08/07 10:18:30;;;;;;;1.05;0.40;;;;;;;24.05;31.96;97173.00;4917466;29;20057;-80
2022/08/07 10:21:21;;;;;;;0.90;0.40;;;;;;;24.14;32.04;97179.50;4908362;29;20504;-80
2022/08/07 10:24:28;;;;;;;0.68;0.13;;;;;;;24.18;31.46;97167.28;4920869;29;20059;-80
2022/08/07 10:27:16;;;;;;;1.63;0.35;;;;;;;24.23;31.94;97174.50;4908518;29;20123;-80
2022/08/07 10:30:23;;;;;;;0.98;0.30;;;;;;;24.34;31.62;97167.38;4918495;29;20132;-80
2022/08/07 10:40:50;;;;;;;1.23;0.30;;;;;;;24.77;29.35;97155.66;4842894;29;20058;-80
2022/08/07 10:43:31;;;;;;;0.30;0.30;;;;;;;24.84;30.14;97150.09;4837976;29;20062;-79
2022/08/07 10:46:07;;;;;;;0.95;0.28;;;;;;;24.91;29.85;97153.34;4842347;29;20058;-80
2022/08/07 10:48:47;;;;;;;0.50;0.20;;;;;;;24.99;29.01;97144.00;4843403;29;20098;-81
2022/08/07 10:51:22;;;;;;;1.85;0.30;;;;;;;25.05;28.70;97150.97;4838380;29;20055;-81
2022/08/07 10:54:21;;;;;;;1.67;0.95;;;;;;;25.09;28.89;97139.50;4839403;29;20088;-80
2022/08/07 10:57:06;;;;;;;3.95;0.88;;;;;;;25.14;28.57;97143.28;4844518;29;20053;-81
2022/08/07 10:59:57;;;;;;;1.83;0.73;;;;;;;25.16;28.32;97135.81;4847178;29;20578;-79
2022/08/07 11:02:32;;;;;;;1.25;0.73;;;;;;;25.20;27.88;97132.38;4837872;29;20082;-80
2022/08/07 11:05:28;;;;;;;1.65;0.73;;;;;;;25.20;27.44;97135.03;4837020;29;20133;-80
2022/08/07 11:08:25;;;;;;;0.60;0.60;;;;;;;25.24;27.58;97135.34;4881315;23;20073;-78
2022/08/07 11:11:03;;;;;;;1.65;0.50;;;;;;;25.28;27.57;97133.75;4879921;29;20504;-76
2022/08/07 11:13:37;;;;;;;6.43;1.20;;;;;;;25.30;27.49;97120.94;4880444;29;20144;-79
2022/08/07 11:16:29;;;;;;;2.38;0.70;;;;;;;25.37;27.83;97116.13;4868278;29;20049;-78
2022/08/07 11:19:05;;;;;;;0.85;0.70;;;;;;;25.45;28.52;97112.13;4884744;29;20530;-78
2022/08/07 11:21:39;;;;;;;1.65;0.70;;;;;;;25.57;29.13;97112.69;4893360;29;20076;-79
2022/08/07 11:24:18;;;;;;;1.55;0.45;;;;;;;25.69;28.01;97107.06;4874080;29;20057;-78
2022/08/07 11:26:52;;;;;;;1.08;0.70;;;;;;;25.79;28.11;97108.97;4866247;29;20053;-78
2022/08/07 11:29:28;;;;;;;0.80;0.40;;;;;;;25.84;26.67;97100.94;4879962;29;20052;-79
2022/08/07 11:32:15;;;;;;;0.82;0.77;;;;;;;25.87;28.16;97098.53;4879457;29;20071;-78
2022/08/07 11:34:57;;;;;;;1.23;0.70;;;;;;;25.93;28.66;97096.69;4879633;29;20052;-78
2022/08/07 11:37:41;;;;;;;0.43;0.20;;;;;;;26.01;27.26;97087.34;4878447;29;20057;-78
2022/08/07 11:40:37;;;;;;;0.35;0.30;;;;;;;26.13;27.05;97092.38;4878302;29;20049;-78
2022/08/07 11:43:13;;;;;;;2.08;0.45;;;;;;;26.18;26.67;97087.84;4877480;29;20530;-78
2022/08/07 11:46:05;;;;;;;0.80;0.20;;;;;;;26.27;26.49;97086.22;4879140;29;20049;-78
2022/08/07 11:49:08;;;;;;;1.15;0.40;;;;;;;26.39;27.04;97077.91;4878403;29;20174;-78
2022/08/07 11:52:13;;;;;;;1.70;0.40;;;;;;;26.48;27.00;97080.84;4877909;29;20130;-75
2022/08/07 11:55:01;;;;;;;0.35;0.35;;;;;;;26.50;26.39;97084.84;4878822;29;20092;-76
2022/08/07 11:57:43;;;;;;;0.45;0.45;;;;;;;26.47;25.84;97074.66;4878095;29;20742;-76
2022/08/07 12:00:36;;;;;;;4.13;0.93;;;;;;;26.47;26.69;97084.56;4878001;29;20056;-76
2022/08/07 12:03:24;;;;;;;1.08;0.40;;;;;;;26.48;26.95;97075.47;4881581;29;20081;-74
2022/08/07 12:06:34;;;;;;;0.93;0.40;;;;;;;26.44;27.35;97069.06;4859677;29;20068;-72
2022/08/07 12:09:13;;;;;;;1.08;0.43;;;;;;;26.42;26.94;97072.00;4863421;29;20495;-75
2022/08/07 12:11:57;;;;;;;0.55;0.45;;;;;;;26.42;27.49;97071.22;4876719;29;20053;-79
2022/08/07 12:14:46;;;;;;;0.50;0.50;;;;;;;26.44;27.12;97072.53;4885646;29;20396;-79
2022/08/07 12:17:37;;;;;;;0.80;0.40;;;;;;;26.45;27.09;97071.47;4892981;29;20052;-76
2022/08/07 12:20:16;;;;;;;1.60;0.60;;;;;;;26.45;27.24;97071.47;4880154;29;20092;-77
2022/08/07 12:23:35;;;;;;;0.60;0.30;;;;;;;26.49;27.47;97069.03;4899601;29;20045;-77
2022/08/07 12:26:28;;;;;;;1.00;0.70;;;;;;;26.53;27.07;97067.44;4894725;29;20112;-77
2022/08/07 12:29:18;;;;;;;0.45;0.45;;;;;;;26.55;28.25;97070.63;4869572;29;20049;-77
2022/08/07 12:32:12;;;;;;;0.70;0.40;;;;;;;26.57;27.01;97060.50;4881060;29;20508;-77
2022/08/07 12:34:44;;;;;;;0.65;0.57;;;;;;;26.55;27.47;97067.16;4882074;29;20084;-76
2022/08/07 12:37:21;;;;;;;1.33;0.50;;;;;;;26.55;28.07;97049.22;4881740;29;20053;-77
2022/08/07 12:39:58;;;;;;;2.70;0.57;;;;;;;26.56;26.92;97056.19;4873038;29;20054;-77
2022/08/07 12:42:28;;;;;;;0.93;0.60;;;;;;;26.55;26.86;97059.94;4877281;29;20057;-77
2022/08/07 12:45:02;;;;;;;0.60;0.30;;;;;;;26.55;27.10;97048.44;4881781;29;20060;-77
2022/08/07 12:47:47;;;;;;;0.60;0.47;;;;;;;26.54;27.26;97042.28;4881258;29;20063;-77
2022/08/07 12:50:33;;;;;;;0.65;0.30;;;;;;;26.55;27.16;97049.22;4865850;29;20045;-77
2022/08/07 12:53:24;;;;;;;1.70;0.50;;;;;;;26.54;27.04;97047.63;4862812;29;20085;-77
2022/08/07 12:56:02;;;;;;;1.02;0.43;;;;;;;26.54;27.33;97042.28;4874603;29;20057;-78
2022/08/07 12:58:38;;;;;;;0.80;0.70;;;;;;;26.55;27.34;97037.75;4880743;29;20139;-77
2022/08/07 13:01:23;;;;;;;0.55;0.45;;;;;;;26.54;27.17;97042.28;4880942;29;20120;-77
2022/08/07 13:04:09;;;;;;;1.30;0.60;;;;;;;26.51;26.70;97038.28;4879845;29;20056;-77
2022/08/07 13:07:14;;;;;;;2.00;0.50;;;;;;;26.48;27.37;97036.16;4863186;29;20049;-77
2022/08/07 13:10:23;;;;;;;2.70;0.68;;;;;;;26.48;27.70;97043.38;4879119;29;20132;-76
2022/08/07 13:13:20;;;;;;;1.48;0.43;;;;;;;26.44;27.01;97036.97;4880025;29;20049;-78
2022/08/07 13:16:15;;;;;;;0.88;0.45;;;;;;;26.40;26.79;97031.34;4882041;29;20061;-78
2022/08/07 13:18:53;;;;;;;2.70;0.80;;;;;;;26.39;26.47;97036.97;4882056;29;20080;-77
2022/08/07 13:21:25;;;;;;;1.15;0.50;;;;;;;26.36;26.64;97029.50;4879794;29;20052;-76
2022/08/07 13:24:22;;;;;;;1.48;0.55;;;;;;;26.35;26.83;97022.53;4878057;29;20495;-76
2022/08/07 13:27:00;;;;;;;2.45;0.63;;;;;;;26.37;27.00;97007.03;4879646;29;20420;-78
2022/08/07 13:29:40;;;;;;;1.63;0.52;;;;;;;26.40;26.41;97012.63;4880119;29;20181;-77
2022/08/07 13:32:18;;;;;;;1.80;0.40;;;;;;;26.42;26.48;97009.69;4878890;29;20139;-76
2022/08/07 13:35:09;;;;;;;0.50;0.40;;;;;;;26.40;26.61;97003.81;4879355;29;20586;-77
2022/08/07 13:37:47;;;;;;;0.75;0.50;;;;;;;26.39;26.43;97003.03;4879115;29;20144;-77
2022/08/07 13:40:31;;;;;;;0.55;0.55;;;;;;;26.39;26.47;97003.03;4866225;29;20050;-76
2022/08/07 13:43:12;;;;;;;1.63;0.40;;;;;;;26.37;26.73;96999.00;4860375;29;20057;-76
2022/08/07 13:45:45;;;;;;;2.63;0.60;;;;;;;26.39;26.60;96999.53;4861738;29;20144;-77
2022/08/07 13:48:36;;;;;;;2.78;0.55;;;;;;;26.39;26.40;96999.53;4861765;29;20401;-77
2022/08/07 13:51:06;;;;;;;0.68;0.30;;;;;;;26.36;26.57;96982.16;4861608;29;20109;-76
2022/08/07 13:53:58;;;;;;;0.88;0.60;;;;;;;26.37;26.59;96989.13;4861630;29;20504;-77
2022/08/07 13:56:33;;;;;;;1.00;0.50;;;;;;;26.41;26.65;96989.34;4861779;29;20090;-77
2022/08/07 13:59:11;;;;;;;0.40;0.40;;;;;;;26.45;26.81;96985.06;4861616;29;20114;-76
2022/08/07 14:01:50;;;;;;;0.88;0.50;;;;;;;26.44;26.50;96983.47;4861299;29;20057;-77
2022/08/07 14:04:31;;;;;;;0.50;0.50;;;;;;;26.43;27.17;96984.53;4872578;29;20079;-76
2022/08/07 14:07:08;;;;;;;0.40;0.40;;;;;;;26.43;26.40;96977.31;4879777;29;20052;-76
2022/08/07 14:09:39;;;;;;;0.80;0.80;;;;;;;26.42;26.73;96983.75;4878710;29;20056;-76
2022/08/07 14:12:35;;;;;;;1.90;0.50;;;;;;;26.45;27.00;96979.72;4879352;29;20055;-76
2022/08/07 14:15:17;;;;;;;1.13;0.50;;;;;;;26.48;26.91;96981.84;4879924;29;20048;-76
2022/08/07 14:17:54;;;;;;;0.73;0.40;;;;;;;26.50;26.20;96968.97;4879016;29;20060;-77
2022/08/07 14:20:44;;;;;;;0.88;0.47;;;;;;;26.53;26.58;96968.44;4879508;29;20055;-79
2022/08/07 14:23:19;;;;;;;0.70;0.70;;;;;;;26.56;26.68;96967.91;4879053;29;20055;-77
2022/08/07 14:26:11;;;;;;;0.53;0.53;;;;;;;26.60;26.66;96966.28;4880833;29;20056;-77
2022/08/07 14:28:59;;;;;;;0.60;0.50;;;;;;;26.62;26.52;96969.50;4880152;29;20292;-76
2022/08/07 14:31:49;;;;;;;0.80;0.52;;;;;;;26.61;26.67;96962.56;4881900;29;20455;-79
2022/08/07 14:34:25;;;;;;;0.77;0.60;;;;;;;26.61;27.29;96951.84;4892691;29;20124;-77
2022/08/07 14:37:15;;;;;;;1.42;0.50;;;;;;;26.62;26.56;96936.59;4898262;29;20091;-77
2022/08/07 14:39:45;;;;;;;0.70;0.50;;;;;;;26.65;26.74;96946.72;4899463;29;20053;-76
2022/08/07 14:42:35;;;;;;;0.98;0.50;;;;;;;26.68;26.39;96955.00;4894080;29;20120;-77
2022/08/07 14:45:27;;;;;;;0.70;0.60;;;;;;;26.70;26.27;96944.03;4893540;29;20063;-76
2022/08/07 14:48:17;;;;;;;1.23;0.70;;;;;;;26.73;26.87;96948.03;4879629;29;20059;-76
2022/08/07 14:50:50;;;;;;;1.92;0.50;;;;;;;26.72;26.18;96944.56;4879586;29;20049;-76
2022/08/07 14:53:19;;;;;;;2.05;1.20;;;;;;;26.71;26.22;96953.66;4879832;29;20140;-77
2022/08/07 14:56:09;;;;;;;1.23;0.80;;;;;;;26.71;26.48;96951.78;4879587;29;20057;-77
2022/08/07 14:58:44;;;;;;;0.98;0.60;;;;;;;26.69;26.39;96948.56;4878952;29;20060;-77
2022/08/07 15:01:20;;;;;;;1.50;0.50;;;;;;;26.69;26.47;96950.47;4878915;29;20503;-76
2022/08/07 15:03:50;;;;;;;;;;;;;;;26.69;26.62;96947.78;4879349;29;20057;-77
2022/08/07 15:06:24;;;;;;;1.35;0.60;;;;;;;26.67;26.39;96949.94;4879419;29;20344;-77
2022/08/07 15:08:52;;;;;;;;;;;;;;;26.65;26.85;96942.19;4879078;29;20097;-76
2022/08/07 15:11:24;;;;;;;0.50;0.50;;;;;;;26.63;26.34;96932.81;4878965;29;20023;-77
2022/08/07 15:14:19;;;;;;;0.40;0.40;;;;;;;26.62;26.85;96942.75;4878749;29;20131;-77
2022/08/07 15:16:56;;;;;;;0.50;0.38;;;;;;;26.63;26.42;96949.72;4879566;29;20053;-76
2022/08/07 15:19:33;;;;;;;0.50;0.50;;;;;;;26.62;25.84;96942.75;4878944;29;20511;-77
2022/08/07 15:22:24;;;;;;;0.88;0.50;;;;;;;26.61;26.15;96940.34;4878993;29;20049;-77
2022/08/07 15:25:02;;;;;;;0.45;0.40;;;;;;;26.60;26.04;96938.75;4879022;29;20083;-77
2022/08/07 15:27:49;;;;;;;0.95;0.60;;;;;;;26.57;25.91;96945.44;4878395;29;20551;-77
2022/08/07 15:30:37;;;;;;;0.55;0.55;;;;;;;26.53;26.10;96933.66;4878381;29;20056;-77
2022/08/07 15:33:27;;;;;;;1.33;0.40;;;;;;;26.50;26.19;96934.19;4878470;29;20442;-77
2022/08/07 15:36:06;;;;;;;0.73;0.60;;;;;;;26.49;26.52;96941.44;4878316;29;20076;-76
2022/08/07 15:38:37;;;;;;;1.27;0.82;;;;;;;26.46;26.26;96931.31;4878879;29;20097;-77
2022/08/07 15:41:28;;;;;;;1.33;0.60;;;;;;;26.45;26.21;96937.72;4861118;29;20053;-77
2022/08/07 15:44:20;;;;;;;0.43;0.43;;;;;;;26.43;25.99;96928.38;4899632;29;20068;-78
2022/08/07 15:46:57;;;;;;;0.93;0.50;;;;;;;26.44;26.37;96930.78;4899388;29;20104;-79
2022/08/07 15:49:34;;;;;;;0.57;0.47;;;;;;;26.46;25.94;96938.53;4883447;29;20055;-79
2022/08/07 15:52:25;;;;;;;0.82;0.50;;;;;;;26.44;25.57;96930.78;4879640;29;20061;-77
2022/08/07 15:54:58;;;;;;;0.73;0.50;;;;;;;26.43;26.13;96925.69;4862682;29;20053;-78
2022/08/07 15:57:31;;;;;;;0.63;0.60;;;;;;;26.42;26.65;96929.44;4861124;29;20056;-77
2022/08/07 16:00:17;;;;;;;1.38;0.50;;;;;;;26.41;26.61;96914.47;4860476;29;20063;-77
2022/08/07 16:03:04;;;;;;;1.02;0.40;;;;;;;26.41;26.56;96919.81;4876505;29;20049;-78
2022/08/07 16:05:34;;;;;;;0.40;0.40;;;;;;;26.40;26.86;96913.69;4880753;29;20057;-78
2022/08/07 16:08:09;;;;;;;0.65;0.47;;;;;;;26.40;26.91;96912.88;4878523;29;20084;-77
2022/08/07 16:11:04;;;;;;;0.60;0.60;;;;;;;26.41;26.55;96914.47;4875650;29;20055;-79
2022/08/07 16:13:59;;;;;;;1.55;0.70;;;;;;;26.41;26.29;96914.47;4873955;29;20526;-77
2022/08/07 16:16:41;;;;;;;0.80;0.80;;;;;;;26.40;26.38;96911.00;4878551;29;20056;-79
2022/08/07 16:19:52;;;;;;;3.38;0.70;;;;;;;26.40;26.52;96908.31;4862826;29;20132;-77
2022/08/07 16:22:52;;;;;;;1.20;0.38;;;;;;;26.39;26.52;96913.94;4868905;29;20045;-76
2022/08/07 16:25:36;;;;;;;0.73;0.73;;;;;;;26.37;26.74;96908.06;4852870;29;20757;-77
2022/08/07 16:28:38;;;;;;;0.88;0.70;;;;;;;26.36;26.81;96909.16;4860061;29;20092;-77
2022/08/07 16:31:38;;;;;;;0.43;0.43;;;;;;;26.31;26.25;96900.09;4866376;29;20045;-77
2022/08/07 16:34:32;;;;;;;2.72;2.45;;;;;;;26.28;26.23;96900.66;4878766;29;20057;-77
2022/08/07 16:37:38;;;;;;;2.83;0.90;;;;;;;26.27;26.46;96901.69;4877847;29;20136;-76
2022/08/07 16:40:56;;;;;;;0.70;0.70;;;;;;;26.28;26.95;96906.00;4877988;29;20052;-77
2022/08/07 16:43:46;;;;;;;14.05;12.45;;;;;;;26.27;26.58;96904.38;4871913;29;20056;-78
2022/08/07 16:46:49;;;;;;;3.47;2.08;;;;;;;26.28;26.64;96900.66;4877992;29;20084;-76
2022/08/07 16:49:45;;;;;;;;;;;;;;;26.30;26.47;96903.03;4878329;29;20063;-78
2022/08/07 16:52:43;;;;;;;0.52;0.50;;;;;;;26.28;26.66;96906.00;4874609;29;19928;-76
2022/08/07 16:55:38;;;;;;;1.20;0.50;;;;;;;26.28;26.36;96899.81;4877718;29;20545;-77
2022/08/07 16:58:22;;;;;;;0.50;0.40;;;;;;;26.28;25.90;96895.28;4878157;29;20081;-78
2022/08/07 17:01:08;;;;;;;1.05;0.50;;;;;;;26.28;26.00;96897.16;4880626;29;20112;-77
2022/08/07 17:03:50;;;;;;;0.35;0.35;;;;;;;26.27;25.64;96896.34;4881502;29;20057;-77
2022/08/07 17:06:43;;;;;;;0.60;0.55;;;;;;;26.28;26.01;96889.13;4880720;29;20048;-76
2022/08/07 17:09:27;;;;;;;1.42;0.40;;;;;;;26.27;25.74;96891.00;4881249;29;20061;-78
2022/08/07 17:12:19;;;;;;;0.77;0.47;;;;;;;26.26;25.65;96892.09;4903689;23;20059;-80
2022/08/07 17:15:23;;;;;;;0.43;0.40;;;;;;;26.26;25.87;96905.47;4930666;29;20115;-81
2022/08/07 17:18:18;;;;;;;0.57;0.50;;;;;;;26.24;25.08;96902.25;4939628;29;20052;-81
2022/08/07 17:20:48;;;;;;;0.77;0.30;;;;;;;26.23;25.68;96900.66;4941871;29;20056;-81
2022/08/07 17:23:43;;;;;;;0.55;0.55;;;;;;;26.22;26.09;96901.75;4912126;29;20060;-82
2022/08/07 17:26:18;;;;;;;1.08;0.80;;;;;;;26.22;26.10;96907.09;4905644;29;20044;-81
2022/08/07 17:29:11;;;;;;;1.60;1.50;;;;;;;26.22;26.44;96907.09;4904380;29;20123;-80
2022/08/07 17:32:12;;;;;;;1.43;1.10;;;;;;;26.22;27.14;96908.97;4881057;29;20049;-79
2022/08/07 17:35:06;;;;;;;0.93;0.90;;;;;;;26.21;26.08;96910.81;4893302;29;20271;-79
2022/08/07 17:38:01;;;;;;;3.97;0.80;;;;;;;26.21;27.25;96908.16;4904551;29;20048;-78
2022/08/07 17:40:39;;;;;;;3.75;1.27;;;;;;;26.22;27.49;96915.09;4899694;29;20174;-79
2022/08/07 17:43:13;;;;;;;2.03;0.68;;;;;;;26.22;27.31;96915.09;4898209;29;20052;-77
2022/08/07 17:45:54;;;;;;;1.50;1.40;;;;;;;26.23;26.88;96922.03;4890762;29;20503;-78
2022/08/07 17:48:32;;;;;;;1.77;0.57;;;;;;;26.22;26.40;96922.34;4884827;29;20049;-78
2022/08/07 17:51:07;;;;;;;3.53;1.95;;;;;;;26.20;27.53;96911.91;4897543;29;20128;-79
2022/08/07 17:53:49;;;;;;;1.52;1.30;;;;;;;26.21;26.98;96918.03;4895496;29;20060;-78
2022/08/07 17:56:31;;;;;;;4.20;2.92;;;;;;;26.19;26.53;96912.16;4879430;29;20757;-77
2022/08/07 17:59:10;;;;;;;4.18;1.80;;;;;;;26.17;27.04;96914.31;4880117;29;20105;-78
2022/08/07 18:01:53;;;;;;;2.00;1.73;;;;;;;26.14;26.52;96917.56;4889369;29;20085;-78
2022/08/07 18:04:31;;;;;;;4.40;1.60;;;;;;;26.12;27.09;96917.03;4901011;29;20080;-79
2022/08/07 18:12:41;;;;;;;1.98;0.35;;;;;;;25.97;25.70;96926.69;4882955;29;20041;-81
2022/08/07 18:15:26;;;;;;;0.80;0.50;;;;;;;25.94;25.58;96931.78;4876553;29;20076;-81
2022/08/07 18:25:26;;;;;;;0.52;0.50;;;;;;;25.77;26.26;96943.56;4862725;29;20088;-81
2022/08/07 18:28:22;;;;;;;1.23;1.13;;;;;;;25.71;26.19;96949.97;4846145;29;20061;-82
2022/08/07 18:31:13;;;;;;;1.92;1.10;;;;;;;25.65;26.20;96951.09;4848758;29;20082;-82
2022/08/07 18:37:25;;;;;;;1.58;0.77;;;;;;;25.57;26.46;96955.09;5147015;27;20386;-80
2022/08/07 18:40:28;;;;;;;1.42;0.60;;;;;;;25.50;26.30;96959.91;5146118;27;20101;-80
2022/08/07 18:46:31;;;;;;;0.50;0.50;;;;;;;25.40;26.82;96979.41;5139795;28;20059;-80
2022/08/07 18:49:03;;;;;;;0.70;0.55;;;;;;;25.36;26.46;96980.19;5137817;27;20461;-80
2022/08/07 18:52:03;;;;;;;1.95;0.60;;;;;;;25.29;26.64;96980.47;5130589;28;20050;-79
2022/08/07 18:55:10;;;;;;;1.42;0.68;;;;;;;25.22;26.71;96985.28;5131939;27;20046;-80
2022/08/07 18:58:15;;;;;;;1.10;0.52;;;;;;;25.17;27.81;96990.59;5120989;27;20097;-79
2022/08/07 19:00:53;;;;;;;2.08;0.75;;;;;;;25.11;26.99;96994.31;5123523;28;20400;-81
2022/08/07 19:03:46;;;;;;;5.60;1.35;;;;;;;25.03;27.07;97001.75;5136482;27;20059;-80
2022/08/07 19:06:28;;;;;;;2.20;0.70;;;;;;;24.98;27.32;97009.78;5124949;28;20126;-80
2022/08/07 19:09:05;;;;;;;1.88;1.02;;;;;;;24.92;27.12;97005.47;5115125;27;20506;-80
2022/08/07 19:12:14;;;;;;;3.58;1.52;;;;;;;24.86;27.65;97023.38;5130313;28;20134;-80
2022/08/07 19:15:03;;;;;;;0.98;0.82;;;;;;;24.82;28.08;97019.63;5118828;28;20048;-77
2022/08/07 19:18:04;;;;;;;1.08;0.50;;;;;;;24.73;28.48;97015.03;5125184;27;20093;-82
2022/08/07 19:20:51;;;;;;;0.98;0.47;;;;;;;24.63;28.45;97016.63;5130254;27;20496;-81
2022/08/07 19:23:45;;;;;;;5.47;0.70;;;;;;;24.56;28.58;97025.94;5110603;28;20131;-81
2022/08/07 19:26:33;;;;;;;1.05;0.70;;;;;;;24.48;28.65;97035.22;5110665;28;20050;-82
2022/08/07 19:29:24;;;;;;;0.70;0.40;;;;;;;24.42;29.46;97037.06;5135957;28;20043;-79
2022/08/07 19:32:16;;;;;;;1.38;0.68;;;;;;;24.37;29.32;97034.34;5141130;28;20051;-80
2022/08/07 19:35:01;;;;;;;0.63;0.63;;;;;;;24.35;29.40;97046.34;5143927;27;20042;-80
2022/08/07 19:37:32;;;;;;;2.45;0.90;;;;;;;24.29;29.19;97055.38;5119700;28;20598;-78
2022/08/07 19:40:20;;;;;;;1.23;0.65;;;;;;;24.20;29.37;97055.84;5114713;27;20051;-80
2022/08/07 19:43:08;;;;;;;0.55;0.55;;;;;;;24.10;29.28;97055.81;5109137;28;20040;-80
2022/08/07 19:45:42;;;;;;;2.45;0.65;;;;;;;23.96;29.61;97059.97;5108968;28;20044;-79
2022/08/07 19:48:36;;;;;;;2.00;0.73;;;;;;;23.83;29.31;97059.38;5095006;27;20505;-80
2022/08/07 19:51:11;;;;;;;0.82;0.60;;;;;;;23.73;29.95;97059.25;5095135;28;20432;-80
2022/08/07 19:53:50;;;;;;;0.57;0.50;;;;;;;23.63;29.57;97053.84;5094992;28;20051;-78
2022/08/07 19:56:42;;;;;;;0.88;0.60;;;;;;;23.62;30.67;97054.91;5094883;28;20044;-79
2022/08/07 19:59:33;;;;;;;0.75;0.73;;;;;;;23.55;31.00;97060.44;5095079;28;20047;-79
2022/08/07 20:02:13;;;;;;;0.63;0.63;;;;;;;23.44;31.25;97048.91;5093034;28;20044;-79
2022/08/07 20:04:50;;;;;;;1.73;0.70;;;;;;;23.36;31.30;97052.00;5094407;28;20052;-79
2022/08/07 20:07:26;;;;;;;0.80;0.43;;;;;;;23.25;31.42;97055.63;5094955;28;20180;-80
2022/08/07 20:10:16;;;;;;;1.35;0.80;;;;;;;23.16;31.70;97054.50;5095097;28;20056;-79
2022/08/07 20:13:06;;;;;;;1.08;0.82;;;;;;;23.03;32.04;97059.16;5093946;28;20052;-79
2022/08/07 20:15:49;;;;;;;1.65;0.60;;;;;;;22.94;32.10;97043.88;5094149;28;20072;-78